Time;durP1;ratioP1;P1;durP2;ratioP2;P2;SDS_P1;SDS_P2;PMS_P1;PMS_P2;Temp;Humidity;BMP_temperature;BMP_pressure;BME280_temperature;BME280_humidity;BME280_pressure;Samples;Min_cycle;Max_cycle;Signal;HPM_P1;HPM_P2
2022/06/09 00:00:13;;;;;;;28.62;19.42;;;;;;;16.08;82.23;96465.94;1803818;79;25707;-72
2022/06/09 00:02:46;;;;;;;22.10;17.62;;;;;;;16.10;82.29;96469.22;1800908;79;25815;-73
2022/06/09 00:05:14;;;;;;;23.47;18.30;;;;;;;16.09;82.32;96485.28;1803754;79;26497;-74
2022/06/09 00:07:41;;;;;;;24.82;18.98;;;;;;;16.05;82.39;96496.45;1797634;79;25893;-74
2022/06/09 00:10:13;;;;;;;24.00;18.82;;;;;;;16.05;82.50;96510.06;1789000;79;27377;-74
2022/06/09 00:12:40;;;;;;;24.55;18.02;;;;;;;16.06;82.60;96518.47;1757212;81;32541;-72
2022/06/09 00:15:10;;;;;;;23.50;18.45;;;;;;;16.09;82.66;96519.30;1757876;81;25852;-71
2022/06/09 00:17:37;;;;;;;20.60;18.15;;;;;;;16.11;82.69;96517.14;1753634;81;25900;-73
2022/06/09 00:20:06;;;;;;;18.57;16.32;;;;;;;16.14;82.71;96502.18;1758734;81;25788;-74
2022/06/09 00:22:33;;;;;;;21.23;16.37;;;;;;;16.17;82.76;96475.78;1749801;81;28441;-72
2022/06/09 00:24:59;;;;;;;18.62;15.58;;;;;;;16.18;82.75;96461.88;1751024;81;25732;-73
2022/06/09 00:27:26;;;;;;;17.80;15.38;;;;;;;16.24;82.73;96468.70;1752054;81;25756;-74
2022/06/09 00:29:52;;;;;;;19.15;15.45;;;;;;;16.28;82.72;96456.20;1749155;80;25820;-72
2022/06/09 00:32:19;;;;;;;20.45;16.35;;;;;;;16.29;82.68;96449.66;1753670;81;25892;-74
2022/06/09 00:34:45;;;;;;;20.10;16.62;;;;;;;16.31;82.67;96448.83;1750786;81;27437;-74
2022/06/09 00:37:12;;;;;;;19.25;16.65;;;;;;;16.32;82.64;96442.30;1749508;81;25745;-74
2022/06/09 00:39:39;;;;;;;18.82;15.95;;;;;;;16.31;82.63;96431.95;1747494;81;25838;-71
2022/06/09 00:42:09;;;;;;;22.58;16.73;;;;;;;16.29;82.62;96433.33;1747690;81;25815;-73
2022/06/09 00:44:37;;;;;;;18.23;15.75;;;;;;;16.23;82.60;96443.92;1751781;81;25783;-73
2022/06/09 00:47:09;;;;;;;21.40;16.60;;;;;;;16.18;82.70;96439.31;1757907;81;27495;-72
2022/06/09 00:49:47;;;;;;;18.98;15.30;;;;;;;16.13;82.73;96426.49;1754718;81;33237;-70
2022/06/09 00:52:18;;;;;;;18.45;15.20;;;;;;;16.11;82.80;96412.33;1629319;87;26569;-72
2022/06/09 00:54:49;;;;;;;19.35;15.72;;;;;;;16.12;82.84;96406.34;1631468;87;25747;-73
2022/06/09 00:57:38;;;;;;;21.02;16.10;;;;;;;16.11;82.87;96412.33;1628930;87;26084;-74
2022/06/09 01:00:13;;;;;;;23.22;16.50;;;;;;;16.10;82.87;96417.50;1628085;87;27542;-74
2022/06/09 01:02:43;;;;;;;19.95;17.02;;;;;;;16.05;82.93;96417.51;1600139;89;25429;-74
2022/06/09 01:05:13;;;;;;;22.60;17.17;;;;;;;16.02;83.03;96416.68;1603650;89;25819;-72
2022/06/09 01:07:47;;;;;;;18.10;16.20;;;;;;;16.04;83.13;96412.33;1599466;89;25742;-74
2022/06/09 01:10:14;;;;;;;22.17;16.62;;;;;;;16.03;83.14;96410.69;1608864;88;25903;-72
2022/06/09 01:12:45;;;;;;;27.20;16.87;;;;;;;16.00;83.21;96406.59;1610581;88;27417;-72
2022/06/09 01:15:21;;;;;;;19.23;16.30;;;;;;;16.02;83.23;96392.72;1608436;88;25879;-73
2022/06/09 01:18:02;;;;;;;18.20;15.45;;;;;;;16.04;83.32;96384.56;1610458;88;25764;-71
2022/06/09 01:20:58;;;;;;;19.92;15.58;;;;;;;16.06;83.25;96386.45;1602866;87;25781;-71
2022/06/09 01:23:49;;;;;;;21.50;15.98;;;;;;;16.08;83.26;96389.72;1611170;88;26089;-74
2022/06/09 01:26:38;;;;;;;19.20;16.32;;;;;;;16.10;83.25;96390.27;1610026;88;27571;-73
2022/06/09 01:29:46;;;;;;;18.87;15.35;;;;;;;16.08;83.20;96385.64;1618252;84;25580;-71
2022/06/09 01:32:18;;;;;;;17.87;14.47;;;;;;;16.07;83.21;96381.28;1645580;86;25839;-72
2022/06/09 01:34:50;;;;;;;18.80;15.65;;;;;;;16.08;83.27;96378.84;1600265;89;26005;-74
2022/06/09 01:37:25;;;;;;;19.05;16.15;;;;;;;16.09;83.26;96377.75;1553853;90;25761;-74
2022/06/09 01:39:55;;;;;;;18.30;14.63;;;;;;;16.06;83.18;96372.84;1533493;92;27447;-72
2022/06/09 01:42:35;;;;;;;18.30;15.13;;;;;;;16.07;83.24;96367.67;1530745;93;25788;-72
2022/06/09 01:45:10;;;;;;;17.85;15.80;;;;;;;16.08;83.18;96367.95;1534397;93;25872;-71
2022/06/09 01:47:44;;;;;;;15.85;13.83;;;;;;;16.09;83.26;96377.75;1507146;94;25890;-72
2022/06/09 01:50:25;;;;;;;21.37;15.10;;;;;;;16.10;83.19;96367.13;1495697;95;25875;-72
2022/06/09 01:52:54;;;;;;;17.92;15.28;;;;;;;16.10;83.14;96370.40;1486845;95;29652;-71
2022/06/09 01:55:24;;;;;;;19.25;14.70;;;;;;;16.07;83.14;96369.03;1498184;95;26019;-72
2022/06/09 01:57:57;;;;;;;17.23;15.35;;;;;;;16.05;83.15;96363.06;1485427;95;25982;-74
2022/06/09 02:00:26;;;;;;;19.35;13.65;;;;;;;15.99;83.17;96361.41;1487494;94;25844;-75
2022/06/09 02:03:04;;;;;;;15.25;12.95;;;;;;;15.95;83.22;96346.70;1491581;94;25962;-72
2022/06/09 02:05:42;;;;;;;16.10;13.25;;;;;;;15.91;83.30;96345.62;1492438;93;28358;-70
2022/06/09 02:08:14;;;;;;;14.47;11.57;;;;;;;15.91;83.37;96351.08;1521512;94;25938;-72
2022/06/09 02:10:45;;;;;;;15.05;13.13;;;;;;;15.94;83.42;96343.70;1513301;92;25898;-73
2022/06/09 02:13:31;;;;;;;18.35;12.70;;;;;;;15.94;83.34;96345.06;1596961;88;26488;-71
2022/06/09 02:16:05;;;;;;;17.73;14.05;;;;;;;15.93;83.26;96350.80;1605364;87;25846;-72
2022/06/09 02:18:38;;;;;;;16.87;14.15;;;;;;;15.87;83.29;96362.22;1605728;88;27604;-74
2022/06/09 02:21:13;;;;;;;15.78;13.05;;;;;;;15.89;83.41;96360.05;1603315;89;25697;-72
2022/06/09 02:23:40;;;;;;;14.70;13.18;;;;;;;15.90;83.34;96371.20;1640829;86;25829;-73
2022/06/09 02:26:07;;;;;;;15.08;13.50;;;;;;;15.89;83.33;96365.48;1650524;86;26385;-72
2022/06/09 02:28:34;;;;;;;19.37;13.48;;;;;;;15.90;83.25;96371.75;1668071;85;25735;-73
2022/06/09 02:31:02;;;;;;;16.10;14.18;;;;;;;15.88;83.19;96374.73;1672841;85;27488;-71
2022/06/09 02:33:29;;;;;;;15.72;14.05;;;;;;;15.84;83.08;96383.16;1665883;85;25743;-71
2022/06/09 02:35:55;;;;;;;15.83;14.13;;;;;;;15.81;83.16;96381.81;1680385;82;25675;-71
2022/06/09 02:38:22;;;;;;;14.90;13.40;;;;;;;15.80;83.17;96375.27;1704215;83;25810;-73
2022/06/09 02:40:50;;;;;;;16.93;13.00;;;;;;;15.74;83.13;96381.23;1697710;83;25739;-71
2022/06/09 02:43:17;;;;;;;16.02;13.20;;;;;;;15.74;83.25;96387.22;1663568;83;27769;-72
2022/06/09 02:45:44;;;;;;;15.68;13.22;;;;;;;15.74;83.31;96384.50;1704782;83;25941;-74
2022/06/09 02:48:12;;;;;;;18.15;13.70;;;;;;;15.76;83.26;96388.59;1710306;83;25941;-73
2022/06/09 02:50:40;;;;;;;18.65;14.55;;;;;;;15.78;83.22;96395.13;1705679;83;25898;-74
2022/06/09 02:53:07;;;;;;;17.32;15.03;;;;;;;15.78;83.22;96389.69;1678342;83;25792;-72
2022/06/09 02:55:35;;;;;;;14.87;13.38;;;;;;;15.80;83.27;96388.88;1669823;85;27422;-73
2022/06/09 02:58:01;;;;;;;17.25;13.48;;;;;;;15.80;83.19;96383.44;1674724;84;25732;-74
2022/06/09 03:00:28;;;;;;;16.07;14.13;;;;;;;15.73;83.16;96384.22;1679588;85;25781;-73
2022/06/09 03:03:02;;;;;;;16.65;13.95;;;;;;;15.69;83.29;96386.69;1678449;84;25821;-73
2022/06/09 03:05:33;;;;;;;20.92;14.33;;;;;;;15.72;83.40;96390.74;1639256;86;25827;-74
2022/06/09 03:07:59;;;;;;;15.88;13.60;;;;;;;15.73;83.47;96388.30;1645420;86;27491;-74
2022/06/09 03:10:26;;;;;;;17.85;13.60;;;;;;;15.74;83.50;96386.67;1628723;85;25843;-72
2022/06/09 03:12:54;;;;;;;15.68;14.07;;;;;;;15.75;83.49;96386.95;1673960;84;26503;-73
2022/06/09 03:15:23;;;;;;;15.75;13.98;;;;;;;15.77;83.51;96393.49;1673937;84;25850;-72
2022/06/09 03:17:51;;;;;;;15.05;13.00;;;;;;;15.79;83.55;96389.97;1671915;85;25783;-73
2022/06/09 03:20:23;;;;;;;14.50;12.78;;;;;;;15.82;83.53;96385.32;1675493;84;28283;-71
2022/06/09 03:22:49;;;;;;;17.70;13.47;;;;;;;15.83;83.49;96385.59;1676204;84;25861;-74
2022/06/09 03:25:16;;;;;;;15.53;13.88;;;;;;;15.79;83.43;96394.05;1670444;84;25746;-73
2022/06/09 03:27:42;;;;;;;15.38;13.40;;;;;;;15.78;83.51;96389.69;1672001;84;26071;-71
2022/06/09 03:30:10;;;;;;;15.93;14.25;;;;;;;15.82;83.62;96392.12;1674955;84;26019;-72
2022/06/09 03:32:37;;;;;;;15.25;13.68;;;;;;;15.86;83.65;96394.59;1667450;85;27409;-74
2022/06/09 03:35:06;;;;;;;16.90;14.75;;;;;;;15.86;83.69;96389.15;1667482;84;25718;-72
2022/06/09 03:37:32;;;;;;;18.37;15.45;;;;;;;15.84;83.73;96391.31;1681211;84;25480;-72
2022/06/09 03:39:59;;;;;;;19.42;15.40;;;;;;;15.82;83.80;96388.05;1671199;84;25953;-73
2022/06/09 03:42:26;;;;;;;25.32;15.13;;;;;;;15.81;83.86;96389.98;1671577;84;25502;-74
2022/06/09 03:44:52;;;;;;;20.62;16.70;;;;;;;15.84;83.94;96384.52;1673273;84;27412;-75
2022/06/09 03:47:19;;;;;;;20.52;16.30;;;;;;;15.87;83.97;96383.16;1671751;84;25731;-73
2022/06/09 03:49:45;;;;;;;19.82;16.30;;;;;;;15.90;83.95;96387.53;1674602;85;27135;-75
2022/06/09 03:52:12;;;;;;;20.57;16.10;;;;;;;15.93;84.00;96392.45;1676725;84;26610;-72
2022/06/09 03:54:38;;;;;;;19.00;15.78;;;;;;;15.93;84.00;96392.45;1676162;84;26048;-72
2022/06/09 03:57:05;;;;;;;18.67;15.40;;;;;;;15.95;83.99;96390.79;1667397;85;27039;-72
2022/06/09 03:59:32;;;;;;;19.02;15.72;;;;;;;15.98;84.02;96395.16;1677975;84;25878;-72
2022/06/09 04:01:58;;;;;;;20.30;14.45;;;;;;;16.01;84.08;96387.00;1674464;85;25844;-71
2022/06/09 04:04:25;;;;;;;18.60;15.10;;;;;;;16.04;84.07;96390.55;1667482;84;25807;-73
2022/06/09 04:06:52;;;;;;;21.45;14.25;;;;;;;16.06;84.07;96391.11;1676181;84;25838;-74
2022/06/09 04:09:18;;;;;;;18.25;13.72;;;;;;;16.08;84.02;96386.18;1742391;80;28440;-73
2022/06/09 04:11:45;;;;;;;17.20;15.35;;;;;;;16.10;84.03;96384.02;1766324;81;25395;-71
2022/06/09 04:14:11;;;;;;;23.22;16.85;;;;;;;16.07;83.98;96381.28;1759766;80;25759;-71
2022/06/09 04:16:44;;;;;;;18.30;15.90;;;;;;;16.08;83.97;96380.73;1758847;80;25846;-74
2022/06/09 04:19:15;;;;;;;18.15;15.20;;;;;;;16.10;84.01;96382.65;1758969;80;25702;-72
2022/06/09 04:21:42;;;;;;;17.60;15.13;;;;;;;16.11;83.98;96378.30;1763454;81;27486;-71
2022/06/09 04:24:10;;;;;;;21.65;15.25;;;;;;;16.13;84.01;96372.05;1759403;80;25647;-72
2022/06/09 04:26:40;;;;;;;17.07;15.05;;;;;;;16.15;83.92;96373.14;1751761;80;25148;-71
2022/06/09 04:29:11;;;;;;;17.62;15.23;;;;;;;16.17;83.89;96370.97;1759691;80;25775;-71
2022/06/09 04:31:38;;;;;;;19.30;15.43;;;;;;;16.18;83.94;96367.16;1762024;80;25665;-72
2022/06/09 04:34:05;;;;;;;18.52;16.50;;;;;;;16.21;83.99;96367.95;1749040;80;27491;-73
2022/06/09 04:36:32;;;;;;;19.50;17.15;;;;;;;16.24;83.87;96370.69;1737793;80;25872;-74
2022/06/09 04:38:59;;;;;;;18.67;16.27;;;;;;;16.27;83.83;96370.97;1767307;80;25686;-75
2022/06/09 04:41:27;;;;;;;18.15;15.35;;;;;;;16.27;83.77;96372.33;1747321;80;26931;-72
2022/06/09 04:43:53;;;;;;;18.07;15.55;;;;;;;16.27;83.74;96374.23;1744618;80;26190;-71
2022/06/09 04:46:22;;;;;;;18.42;15.15;;;;;;;16.28;83.76;96367.16;1762782;80;27403;-72
2022/06/09 04:48:49;;;;;;;18.02;15.23;;;;;;;16.33;83.66;96369.86;1761951;80;25656;-73
2022/06/09 04:51:19;;;;;;;18.45;15.38;;;;;;;16.38;83.60;96378.59;1767503;80;26388;-72
2022/06/09 04:53:46;;;;;;;15.90;14.20;;;;;;;16.38;83.59;96371.23;1758670;80;26484;-71
2022/06/09 04:56:17;;;;;;;17.20;15.00;;;;;;;16.40;83.54;96375.87;1748176;80;25810;-74
2022/06/09 04:58:44;;;;;;;16.73;14.50;;;;;;;16.39;83.58;96369.33;1757868;80;27428;-73
2022/06/09 05:01:21;;;;;;;16.50;14.05;;;;;;;16.41;83.55;96372.06;1756637;80;25694;-71
2022/06/09 05:03:49;;;;;;;16.90;14.18;;;;;;;16.45;83.45;96366.86;1717849;83;25769;-74
2022/06/09 05:06:20;;;;;;;17.73;14.95;;;;;;;16.46;83.43;96364.41;1683494;84;25915;-72
2022/06/09 05:08:48;;;;;;;18.25;14.80;;;;;;;16.49;83.32;96371.50;1582534;89;25803;-73
2022/06/09 05:11:15;;;;;;;21.45;15.58;;;;;;;16.50;83.22;96372.31;1582238;89;27414;-73
2022/06/09 05:13:42;;;;;;;18.42;14.70;;;;;;;16.52;83.23;96372.86;1583124;87;25818;-73
2022/06/09 05:16:09;;;;;;;17.42;15.35;;;;;;;16.52;83.06;96375.04;1589248;89;25755;-74
2022/06/09 05:18:37;;;;;;;18.67;15.88;;;;;;;16.51;83.07;96378.03;1586300;87;26478;-71
2022/06/09 05:21:05;;;;;;;16.82;14.70;;;;;;;16.54;83.09;96384.30;1586109;89;25963;-71
2022/06/09 05:23:33;;;;;;;19.27;15.63;;;;;;;16.58;83.01;96380.74;1587810;89;27585;-72
2022/06/09 05:26:03;;;;;;;18.92;15.78;;;;;;;16.63;82.95;96384.05;1593068;89;25309;-72
2022/06/09 05:28:31;;;;;;;16.30;14.60;;;;;;;16.66;82.92;96386.78;1588010;89;26003;-71
2022/06/09 05:30:58;;;;;;;17.30;15.48;;;;;;;16.70;82.95;96391.39;1583816;89;25897;-71
2022/06/09 05:33:25;;;;;;;16.37;14.07;;;;;;;16.74;82.84;96378.86;1587257;89;25892;-72
2022/06/09 05:35:51;;;;;;;16.27;14.38;;;;;;;16.74;82.70;96392.48;1587295;89;28932;-71
2022/06/09 05:46:35;;;;;;;16.35;14.18;;;;;;;16.80;82.83;96395.45;1582608;89;25765;-71
2022/06/09 05:49:03;;;;;;;19.40;15.98;;;;;;;16.79;82.88;96395.18;1586094;89;27468;-72
2022/06/09 05:51:31;;;;;;;19.57;14.87;;;;;;;16.81;82.96;96393.00;1569132;90;25904;-72
2022/06/09 05:53:58;;;;;;;17.67;15.80;;;;;;;16.84;83.00;96395.19;1592626;89;25944;-72
2022/06/09 05:56:25;;;;;;;19.05;16.07;;;;;;;16.87;83.07;96390.55;1570361;90;25712;-73
2022/06/09 05:58:52;;;;;;;20.25;15.60;;;;;;;16.88;82.92;96396.82;1587908;89;25947;-72
2022/06/09 06:01:18;;;;;;;17.23;14.90;;;;;;;16.87;82.90;96401.45;1571242;87;27436;-72
2022/06/09 06:03:45;;;;;;;16.62;14.70;;;;;;;16.90;83.05;96398.73;1629198;87;25811;-71
2022/06/09 06:08:56;;;;;;;15.93;12.93;;;;;;;16.99;82.91;96403.06;1744141;80;25437;-75
2022/06/09 06:11:23;;;;;;;14.93;13.30;;;;;;;17.03;82.88;96402.76;1762692;80;25719;-72
2022/06/09 06:13:50;;;;;;;14.50;12.93;;;;;;;17.08;82.83;96400.03;1769174;80;28310;-75
2022/06/09 06:16:17;;;;;;;16.52;12.60;;;;;;;17.13;82.68;96400.03;1754557;80;25710;-75
2022/06/09 06:18:43;;;;;;;17.50;13.35;;;;;;;17.18;82.53;96405.45;1747814;80;25670;-74
2022/06/09 06:21:10;;;;;;;14.63;13.13;;;;;;;17.19;82.51;96409.81;1749905;80;25670;-73
2022/06/09 06:23:37;;;;;;;15.93;13.28;;;;;;;17.24;82.49;96404.36;1766309;80;25461;-74
2022/06/09 06:26:04;;;;;;;18.17;13.68;;;;;;;17.26;82.49;96410.36;1766748;80;27396;-73
2022/06/09 06:28:30;;;;;;;15.08;13.28;;;;;;;17.29;82.60;96413.88;1767551;81;25835;-73
2022/06/09 06:30:57;;;;;;;17.10;13.95;;;;;;;17.34;82.69;96409.77;1753249;80;25775;-72
2022/06/09 06:33:24;;;;;;;16.82;13.93;;;;;;;17.40;82.69;96405.10;1762493;80;25673;-73
2022/06/09 06:35:50;;;;;;;17.20;13.85;;;;;;;17.45;82.57;96408.64;1765201;81;25757;-73
2022/06/09 06:38:17;;;;;;;16.85;14.75;;;;;;;17.52;82.51;96409.14;1752441;80;27390;-72
2022/06/09 06:40:44;;;;;;;21.82;15.93;;;;;;;17.57;82.56;96409.13;1738153;80;25463;-72
2022/06/09 06:43:11;;;;;;;17.02;14.98;;;;;;;17.62;82.55;96414.58;1753371;80;25675;-73
2022/06/09 06:45:37;;;;;;;17.52;15.60;;;;;;;17.68;82.64;96411.30;1738160;80;25960;-76
2022/06/09 06:48:05;;;;;;;18.55;15.65;;;;;;;17.74;82.59;96410.73;1739687;80;25826;-73
2022/06/09 06:50:32;;;;;;;16.25;14.18;;;;;;;17.80;82.65;96408.23;1762205;80;27470;-73
2022/06/09 06:52:58;;;;;;;17.23;14.87;;;;;;;17.80;82.28;96406.32;1758790;80;26026;-73
2022/06/09 06:55:25;;;;;;;16.42;14.55;;;;;;;17.78;82.00;96412.61;1758893;80;25864;-72
2022/06/09 06:57:53;;;;;;;17.37;14.43;;;;;;;17.81;82.06;96409.87;1738011;80;25879;-73
2022/06/09 07:00:24;;;;;;;17.48;14.45;;;;;;;17.82;81.95;96407.41;1751621;80;25701;-73
2022/06/09 07:02:51;;;;;;;15.53;13.85;;;;;;;17.81;81.85;96411.23;1752154;80;27403;-76
2022/06/09 07:05:20;;;;;;;14.87;13.38;;;;;;;17.81;81.95;96412.05;1742742;80;25699;-74
2022/06/09 07:07:47;;;;;;;17.05;12.82;;;;;;;17.87;81.87;96408.76;1747680;80;25758;-75
2022/06/09 07:10:14;;;;;;;17.82;13.28;;;;;;;17.91;81.78;96412.53;1751770;80;26583;-72
2022/06/09 07:12:41;;;;;;;17.35;13.45;;;;;;;17.97;81.94;96415.52;1758795;80;25812;-73
2022/06/09 07:15:11;;;;;;;14.30;12.55;;;;;;;18.06;81.93;96417.91;1754440;80;27243;-76
2022/06/09 07:17:38;;;;;;;14.75;13.03;;;;;;;18.14;81.75;96417.30;1763925;80;25813;-75
2022/06/09 07:20:07;;;;;;;15.18;13.38;;;;;;;18.28;81.58;96418.85;1738117;80;25818;-74
2022/06/09 07:22:33;;;;;;;18.67;13.60;;;;;;;18.36;81.54;96414.95;1749506;80;25775;-76
2022/06/09 07:25:00;;;;;;;14.87;13.32;;;;;;;18.47;81.60;96409.44;1738023;80;25700;-73
2022/06/09 07:27:27;;;;;;;14.98;13.48;;;;;;;18.57;81.49;96406.62;1754075;80;27601;-76
2022/06/09 07:29:54;;;;;;;15.15;12.45;;;;;;;18.65;81.38;96404.66;1753550;80;25775;-75
2022/06/09 07:32:21;;;;;;;14.35;12.95;;;;;;;18.71;81.43;96407.62;1757510;80;25757;-73
2022/06/09 07:34:48;;;;;;;15.28;13.68;;;;;;;18.77;81.16;96405.09;1757009;80;25706;-74
2022/06/09 07:37:16;;;;;;;14.83;13.22;;;;;;;18.78;81.30;96402.63;1746824;80;25805;-75
2022/06/09 07:39:43;;;;;;;14.38;12.90;;;;;;;18.83;81.27;96406.69;1759276;80;26807;-74
2022/06/09 07:42:10;;;;;;;14.30;12.80;;;;;;;18.87;80.90;96402.26;1757745;80;25744;-77
2022/06/09 07:44:37;;;;;;;17.42;12.70;;;;;;;18.96;80.79;96396.97;1766602;81;25885;-74
2022/06/09 07:47:05;;;;;;;15.55;13.88;;;;;;;19.02;80.76;96392.55;1748103;80;25674;-75
2022/06/09 07:49:33;;;;;;;15.00;13.40;;;;;;;19.10;80.83;96394.38;1766663;81;25727;-78
2022/06/09 07:52:00;;;;;;;14.93;13.08;;;;;;;19.15;80.27;96402.53;1758795;80;27438;-75
2022/06/09 07:54:27;;;;;;;16.48;14.25;;;;;;;19.16;80.03;96396.78;1766583;81;25816;-75
2022/06/09 07:56:53;;;;;;;17.23;14.45;;;;;;;19.12;80.02;96402.56;1767673;81;26898;-77
2022/06/09 07:59:20;;;;;;;17.10;14.35;;;;;;;19.10;80.18;96402.58;1763579;80;25735;-76
2022/06/09 08:01:47;;;;;;;17.05;14.98;;;;;;;19.08;80.30;96408.91;1764063;80;25817;-75
2022/06/09 08:04:16;;;;;;;16.37;14.75;;;;;;;19.04;80.14;96399.91;1772174;80;27426;-75
2022/06/09 08:06:42;;;;;;;15.32;13.80;;;;;;;19.10;80.44;96409.41;1751050;80;25492;-77
2022/06/09 08:09:10;;;;;;;15.95;14.25;;;;;;;19.13;80.29;96408.29;1779385;79;25703;-75
2022/06/09 08:11:37;;;;;;;17.23;14.78;;;;;;;19.16;80.18;96410.45;1787181;78;25952;-75
2022/06/09 08:14:06;;;;;;;17.48;14.63;;;;;;;19.18;80.13;96411.53;1797467;79;25213;-75
2022/06/09 08:16:34;;;;;;;16.73;15.03;;;;;;;19.22;80.27;96406.55;1793143;79;28285;-75
2022/06/09 08:19:01;;;;;;;16.95;15.08;;;;;;;19.29;80.41;96414.42;1778735;79;25936;-76
2022/06/09 08:21:28;;;;;;;19.15;15.70;;;;;;;19.32;80.36;96414.63;1785706;79;25752;-74
2022/06/09 08:23:55;;;;;;;16.65;14.87;;;;;;;19.37;80.32;96426.91;1779021;79;26249;-75
2022/06/09 08:26:22;;;;;;;19.98;14.63;;;;;;;19.38;80.28;96421.70;1769161;79;25760;-74
2022/06/09 08:28:49;;;;;;;17.35;14.58;;;;;;;19.43;80.32;96424.39;1787472;79;27385;-74
2022/06/09 08:31:16;;;;;;;15.60;14.00;;;;;;;19.46;80.24;96427.07;1788326;79;25708;-75
2022/06/09 08:33:43;;;;;;;17.05;15.20;;;;;;;19.44;80.07;96425.98;1779848;79;25736;-76
2022/06/09 08:36:10;;;;;;;16.35;14.38;;;;;;;19.45;79.99;96432.28;1782197;80;25703;-75
2022/06/09 08:38:38;;;;;;;16.80;14.10;;;;;;;19.47;79.98;96439.65;1790413;79;25648;-75
2022/06/09 08:41:29;;;;;;;17.27;13.48;;;;;;;19.48;79.83;96435.81;1783720;79;27548;-76
2022/06/09 08:44:21;;;;;;;15.20;13.60;;;;;;;19.50;79.51;96434.19;1787784;79;25720;-77
2022/06/09 08:47:10;;;;;;;14.55;13.05;;;;;;;19.53;79.73;96433.05;1787376;79;26027;-77
2022/06/09 08:50:00;;;;;;;16.02;13.55;;;;;;;19.56;79.71;96439.30;1674372;83;25526;-76
2022/06/09 08:52:41;;;;;;;15.00;13.35;;;;;;;19.60;79.74;96437.61;1627307;87;25769;-75
2022/06/09 08:55:28;;;;;;;14.75;13.25;;;;;;;19.62;79.55;96434.59;1630919;86;27438;-77
2022/06/09 08:58:03;;;;;;;14.80;13.20;;;;;;;19.54;78.84;96434.69;1634813;86;25784;-73
2022/06/09 09:00:36;;;;;;;17.65;15.10;;;;;;;19.55;79.13;96440.42;1620280;86;36128;-74
2022/06/09 09:03:08;;;;;;;18.02;14.00;;;;;;;19.69;79.11;96441.33;1637076;85;25912;-74
2022/06/09 09:05:42;;;;;;;15.35;13.80;;;;;;;19.75;78.91;96434.69;1626655;86;25874;-74
2022/06/09 09:08:11;;;;;;;15.88;13.98;;;;;;;19.81;79.23;96444.20;1593486;89;27434;-74
2022/06/09 09:11:00;;;;;;;20.27;14.45;;;;;;;19.81;78.55;96438.72;1592868;88;25995;-74
2022/06/09 09:13:59;;;;;;;19.92;14.70;;;;;;;19.76;78.21;96452.75;1588546;89;25879;-75
2022/06/09 09:17:04;;;;;;;15.70;14.13;;;;;;;19.83;78.44;96444.72;1588709;88;26315;-76
2022/06/09 09:22:54;;;;;;;14.78;13.22;;;;;;;20.23;78.66;96451.03;1531979;93;28251;-74
2022/06/09 09:26:17;;;;;;;17.15;14.85;;;;;;;20.35;78.24;96460.18;1483167;96;25922;-75
2022/06/09 09:28:51;;;;;;;18.85;13.55;;;;;;;20.47;78.22;96446.31;1510098;93;25892;-74
2022/06/09 09:31:41;;;;;;;15.15;12.68;;;;;;;20.62;77.29;96441.72;1535076;92;26067;-74
2022/06/09 09:34:19;;;;;;;13.75;12.28;;;;;;;20.70;76.72;96436.91;1528732;92;25979;-74
2022/06/09 09:36:50;;;;;;;14.20;12.60;;;;;;;20.65;76.42;96435.64;1536916;92;27613;-74
2022/06/09 09:39:26;;;;;;;14.30;12.63;;;;;;;20.78;76.67;96436.22;1539772;92;25866;-78
2022/06/09 09:42:04;;;;;;;15.23;12.47;;;;;;;21.10;76.45;96441.71;1533142;91;26550;-77
2022/06/09 09:44:30;;;;;;;12.85;11.60;;;;;;;21.36;75.69;96438.53;1515851;93;26593;-75
2022/06/09 09:47:01;;;;;;;14.47;11.45;;;;;;;21.65;75.63;96439.04;1522989;91;25919;-76
2022/06/09 09:49:35;;;;;;;13.28;11.93;;;;;;;21.99;75.29;96435.07;1532413;90;28176;-74
2022/06/09 09:52:06;;;;;;;12.75;11.48;;;;;;;22.03;73.88;96427.30;1494890;94;26072;-75
2022/06/09 09:54:39;;;;;;;13.28;11.25;;;;;;;22.03;73.88;96427.30;1520500;91;25883;-74
2022/06/09 09:57:19;;;;;;;13.08;11.12;;;;;;;22.02;73.82;96420.17;1553916;91;25840;-75
2022/06/09 09:59:53;;;;;;;11.33;10.23;;;;;;;22.16;73.88;96423.70;1554501;91;25335;-77
2022/06/09 10:08:40;;;;;;;11.48;10.40;;;;;;;22.56;73.19;96410.95;1463455;96;25818;-75
2022/06/09 10:14:32;;;;;;;12.28;11.00;;;;;;;22.95;72.66;96414.95;1460433;97;25795;-74
2022/06/09 10:17:00;;;;;;;11.03;9.93;;;;;;;23.53;72.57;96407.12;1383578;102;27151;-74
2022/06/09 10:19:31;;;;;;;11.50;10.40;;;;;;;24.05;71.65;96408.88;1384443;102;26011;-74
2022/06/09 10:22:02;;;;;;;10.82;9.53;;;;;;;24.25;70.70;96410.25;1441468;97;25872;-74
2022/06/09 10:24:46;;;;;;;10.72;9.63;;;;;;;24.25;69.82;96406.11;1460244;96;25952;-74
2022/06/09 10:27:17;;;;;;;10.72;9.73;;;;;;;24.13;69.42;96403.71;1459562;96;25920;-74
2022/06/09 10:29:56;;;;;;;10.28;9.33;;;;;;;23.96;69.59;96394.27;1474550;96;27681;-77
2022/06/09 10:32:49;;;;;;;10.35;8.93;;;;;;;24.12;70.12;96400.70;1480100;96;25986;-78
2022/06/09 10:35:36;;;;;;;9.53;8.73;;;;;;;24.48;69.48;96394.92;1464723;96;25845;-74
2022/06/09 10:38:20;;;;;;;10.50;9.35;;;;;;;24.97;68.52;96395.80;1466539;96;25906;-75
2022/06/09 10:40:54;;;;;;;10.20;9.20;;;;;;;25.46;68.08;96398.48;1466354;96;25513;-74
2022/06/09 10:43:36;;;;;;;10.18;9.18;;;;;;;25.89;67.12;96393.34;1445087;97;27745;-76
2022/06/09 10:46:11;;;;;;;12.47;10.85;;;;;;;26.16;66.24;96394.80;1490141;94;26207;-75
2022/06/09 10:55:15;;;;;;;;;;;;;;;26.85;63.83;96391.48;1569159;89;25809;-77
2022/06/09 10:58:32;;;;;;;8.33;7.53;;;;;;;27.01;60.53;96391.70;1584977;88;28124;-74
2022/06/09 11:00:58;;;;;;;8.88;7.42;;;;;;;27.28;61.83;96396.63;1645405;86;25936;-80
2022/06/09 11:03:33;;;;;;;10.18;7.95;;;;;;;27.38;60.87;96400.33;1643280;86;25824;-81
2022/06/09 11:06:17;;;;;;;9.25;7.20;;;;;;;27.51;60.82;96390.89;1579299;90;26618;-77
2022/06/09 11:09:07;;;;;;;8.40;7.53;;;;;;;27.55;60.21;96390.98;1588922;90;25912;-74
2022/06/09 11:11:47;;;;;;;11.18;7.42;;;;;;;27.65;60.14;96386.43;1589889;90;27531;-72
2022/06/09 11:14:43;;;;;;;6.80;6.20;;;;;;;27.89;59.53;96383.66;1592395;88;25938;-75
2022/06/09 11:17:41;;;;;;;7.25;6.55;;;;;;;27.82;58.84;96386.18;1584524;90;25854;-72
2022/06/09 11:20:45;;;;;;;9.70;7.00;;;;;;;27.98;58.17;96394.62;1585081;90;25934;-74
2022/06/09 11:23:22;;;;;;;6.15;5.65;;;;;;;27.96;57.20;96389.99;1579236;89;25717;-76
2022/06/09 11:26:09;;;;;;;7.65;6.62;;;;;;;27.99;57.09;96383.76;1548196;92;27450;-76
2022/06/09 11:29:04;;;;;;;7.53;6.83;;;;;;;27.98;56.42;96382.72;1489584;93;26136;-77
2022/06/09 11:31:47;;;;;;;7.95;7.15;;;;;;;27.80;55.73;96378.78;1500979;95;25867;-76
2022/06/09 11:34:39;;;;;;;7.53;6.83;;;;;;;27.42;56.73;96379.08;1498332;95;26587;-77
2022/06/09 11:37:21;;;;;;;8.08;7.37;;;;;;;27.65;56.26;96375.91;1503794;94;25949;-74
2022/06/09 11:40:02;;;;;;;10.78;7.80;;;;;;;27.86;56.69;96373.25;1497805;95;27457;-73
2022/06/09 11:42:34;;;;;;;7.85;7.05;;;;;;;28.12;56.13;96376.23;1489625;92;25869;-75
2022/06/09 11:45:23;;;;;;;9.15;7.60;;;;;;;28.17;55.83;96374.01;1549624;91;25380;-74
2022/06/09 11:47:52;;;;;;;7.87;7.17;;;;;;;28.07;55.20;96370.33;1539013;92;25830;-73
2022/06/09 11:50:24;;;;;;;8.65;6.92;;;;;;;27.82;54.73;96367.34;1551042;91;25835;-75
2022/06/09 11:52:50;;;;;;;9.45;7.85;;;;;;;27.55;54.77;96358.56;1569423;90;28976;-77
2022/06/09 11:58:40;;;;;;;10.60;8.58;;;;;;;27.18;55.03;96349.95;1557010;90;25813;-73
2022/06/09 12:01:30;;;;;;;10.10;8.33;;;;;;;26.94;55.05;96347.12;1522748;92;25828;-70
2022/06/09 12:04:28;;;;;;;9.28;8.38;;;;;;;26.76;55.27;96348.67;1528012;92;25955;-81
2022/06/09 12:07:24;;;;;;;9.48;8.58;;;;;;;26.46;55.46;96343.81;1523544;92;27666;-75
2022/06/09 12:10:31;;;;;;;10.55;8.78;;;;;;;26.28;55.59;96340.16;1454720;96;25967;-76
2022/06/09 12:13:23;;;;;;;10.68;9.60;;;;;;;25.96;56.23;96330.05;1455275;97;25960;-75
2022/06/09 12:16:03;;;;;;;12.25;10.00;;;;;;;25.81;56.71;96322.34;1452042;98;26630;-75